createdAt,value
2017-06-23T00:00:11.445Z,-4.08
2017-06-23T00:00:59.595Z,-4.08
2017-06-23T00:01:54.544Z,-4.08
2017-06-23T00:02:49.629Z,-4.08
2017-06-23T00:03:43.707Z,-4.08
2017-06-23T00:04:32.689Z,-4.08
2017-06-23T00:05:26.575Z,-4.08
2017-06-23T00:06:15.819Z,-4.08
2017-06-23T00:07:09.752Z,-4.08
2017-06-23T00:08:04.831Z,-4.08
2017-06-23T00:08:53.195Z,-4.08
2017-06-23T00:09:42.024Z,-4.08
2017-06-23T00:10:42.010Z,-4.08
2017-06-23T00:11:30.733Z,-4.08
2017-06-23T00:12:24.843Z,-4.08
2017-06-23T00:13:25.185Z,-4.08
2017-06-23T00:14:25.090Z,-4.08
2017-06-23T00:15:18.942Z,-4.08
2017-06-23T00:16:19.270Z,-4.08
2017-06-23T00:17:13.045Z,-4.08
2017-06-23T00:18:01.041Z,-4.08
2017-06-23T00:18:50.473Z,-4.08
2017-06-23T00:19:50.211Z,-4.09
2017-06-23T00:20:45.150Z,-4.09
2017-06-23T00:21:34.228Z,-4.09
2017-06-23T00:22:34.282Z,-4.09
2017-06-23T00:23:28.344Z,-4.09
2017-06-23T00:24:23.441Z,-4.09
2017-06-23T00:25:23.464Z,-4.09
2017-06-23T00:26:18.426Z,-4.09
2017-06-23T00:27:06.525Z,-4.09
2017-06-23T00:27:55.842Z,-4.09
2017-06-23T00:28:44.849Z,-4.09
2017-06-23T00:29:33.912Z,-4.09
2017-06-23T00:30:22.938Z,-4.10
2017-06-23T00:31:18.043Z,-4.10
2017-06-23T00:32:07.043Z,-4.10
2017-06-23T00:33:01.080Z,-4.10
2017-06-23T00:33:55.154Z,-4.10
2017-06-23T00:34:44.095Z,-4.10
2017-06-23T00:35:38.183Z,-4.10
2017-06-23T00:36:32.286Z,-4.10
2017-06-23T00:37:27.050Z,-4.10
2017-06-23T00:38:16.059Z,-4.10
2017-06-23T00:39:05.228Z,-4.10
2017-06-23T00:39:54.129Z,-4.10
2017-06-23T00:40:43.190Z,-4.10
2017-06-23T00:41:43.444Z,-4.10
2017-06-23T00:42:31.360Z,-4.10
2017-06-23T00:43:26.511Z,-4.10
2017-06-23T00:44:21.774Z,-4.10
2017-06-23T00:45:15.409Z,-4.10
2017-06-23T00:46:15.429Z,-4.10
2017-06-23T00:47:09.482Z,-4.10
2017-06-23T00:48:10.523Z,-4.10
2017-06-23T00:49:10.632Z,-4.10
2017-06-23T00:50:05.620Z,-4.10
2017-06-23T00:50:53.635Z,-4.10
2017-06-23T00:51:41.691Z,-4.10
2017-06-23T00:52:42.765Z,-4.10
2017-06-23T00:53:38.145Z,-4.10
2017-06-23T00:54:26.096Z,-4.10
2017-06-23T00:55:19.830Z,-4.10
2017-06-23T00:56:14.844Z,-4.09
2017-06-23T00:57:03.917Z,-4.09
2017-06-23T00:58:04.375Z,-4.09
2017-06-23T00:58:58.483Z,-4.09
2017-06-23T00:59:58.300Z,-4.09
2017-06-23T01:00:52.364Z,-4.09
2017-06-23T01:01:47.454Z,-4.09
2017-06-23T01:02:36.471Z,-4.09
2017-06-23T01:03:25.247Z,-4.09
2017-06-23T01:04:14.554Z,-4.09
2017-06-23T01:05:03.349Z,-4.09
2017-06-23T01:05:57.349Z,-4.09
2017-06-23T01:06:52.393Z,-4.09
2017-06-23T01:07:52.422Z,-4.09
2017-06-23T01:08:41.764Z,-4.09
2017-06-23T01:09:36.538Z,-4.09
2017-06-23T01:10:30.717Z,-4.09
2017-06-23T01:11:25.609Z,-4.09
2017-06-23T01:12:19.844Z,-4.09
2017-06-23T01:13:13.698Z,-4.09
2017-06-23T01:14:03.100Z,-4.09
2017-06-23T01:14:51.128Z,-4.09
2017-06-23T01:15:50.866Z,-4.09
2017-06-23T01:16:38.865Z,-4.09
2017-06-23T01:17:27.352Z,-4.09
2017-06-23T01:18:21.944Z,-4.09
2017-06-23T01:19:10.362Z,-4.09
2017-06-23T01:20:05.136Z,-4.09
2017-06-23T01:20:54.101Z,-4.09
2017-06-23T01:21:43.118Z,-4.09
2017-06-23T01:22:32.151Z,-4.09
2017-06-23T01:23:26.224Z,-4.09
2017-06-23T01:24:20.517Z,-4.09
2017-06-23T01:25:15.906Z,-4.09
2017-06-23T01:26:03.603Z,-4.09
2017-06-23T01:26:52.621Z,-4.09
2017-06-23T01:27:46.749Z,-4.09
2017-06-23T01:28:46.788Z,-4.09
2017-06-23T01:29:35.899Z,-4.09
2017-06-23T01:30:23.963Z,-4.09
2017-06-23T01:31:12.911Z,-4.09
2017-06-23T01:32:01.937Z,-4.09
2017-06-23T01:33:01.964Z,-4.09
2017-06-23T01:33:57.015Z,-4.09
2017-06-23T01:34:50.998Z,-4.09
2017-06-23T01:35:46.160Z,-4.09
2017-06-23T01:36:40.165Z,-4.09
2017-06-23T01:37:34.192Z,-4.09
2017-06-23T01:38:28.171Z,-4.09
2017-06-23T01:39:28.258Z,-4.09
2017-06-23T01:40:16.292Z,-4.09
2017-06-23T01:41:04.375Z,-4.09
2017-06-23T01:41:53.409Z,-4.09
2017-06-23T01:42:48.386Z,-4.09
2017-06-23T01:43:37.549Z,-4.09
2017-06-23T01:44:26.581Z,-4.09
2017-06-23T01:45:26.587Z,-4.09
2017-06-23T01:46:20.829Z,-4.09
2017-06-23T01:47:14.628Z,-4.09
2017-06-23T01:48:08.721Z,-4.09
2017-06-23T01:49:02.819Z,-4.09
2017-06-23T01:49:56.799Z,-4.09
2017-06-23T01:50:50.787Z,-4.09
2017-06-23T01:51:38.842Z,-4.09
2017-06-23T01:52:32.923Z,-4.09
2017-06-23T01:53:20.652Z,-4.09
2017-06-23T01:54:15.063Z,-4.09
2017-06-23T01:55:08.987Z,-4.09
2017-06-23T01:56:03.101Z,-4.09
2017-06-23T01:56:52.119Z,-4.09
2017-06-23T01:57:41.247Z,-4.09
2017-06-23T01:58:35.022Z,-4.09
2017-06-23T01:59:30.295Z,-4.09
2017-06-23T02:00:24.385Z,-4.09
2017-06-23T02:01:19.346Z,-4.09
2017-06-23T02:02:13.495Z,-4.09
2017-06-23T02:03:08.413Z,-4.09
2017-06-23T02:04:02.520Z,-4.09
2017-06-23T02:04:50.245Z,-4.09
2017-06-23T02:05:45.605Z,-4.09
2017-06-23T02:06:39.587Z,-4.09
2017-06-23T02:07:34.637Z,-4.09
2017-06-23T02:08:28.636Z,-4.09
2017-06-23T02:09:16.808Z,-4.09
2017-06-23T02:10:10.459Z,-4.09
2017-06-23T02:10:59.647Z,-4.09
2017-06-23T02:11:59.563Z,-4.09
2017-06-23T02:12:54.006Z,-4.09
2017-06-23T02:13:41.956Z,-4.09
2017-06-23T02:14:29.652Z,-4.09
2017-06-23T02:15:24.870Z,-4.09
2017-06-23T02:16:25.809Z,-4.09
2017-06-23T02:17:13.857Z,-4.09
2017-06-23T02:18:14.105Z,-4.09
2017-06-23T02:19:09.284Z,-4.09
2017-06-23T02:20:02.969Z,-4.09
2017-06-23T02:21:02.954Z,-4.09
2017-06-23T02:21:57.044Z,-4.09
2017-06-23T02:22:51.107Z,-4.09
2017-06-23T02:23:45.304Z,-4.09
2017-06-23T02:24:40.256Z,-4.09
2017-06-23T02:25:40.192Z,-4.09
2017-06-23T02:26:29.238Z,-4.09
2017-06-23T02:27:23.314Z,-4.09
2017-06-23T02:28:12.327Z,-4.09
2017-06-23T02:29:07.552Z,-4.09
2017-06-23T02:30:01.448Z,-4.09
2017-06-23T02:30:55.431Z,-4.09
2017-06-23T02:31:50.544Z,-4.09
2017-06-23T02:32:38.562Z,-4.09
2017-06-23T02:33:27.613Z,-4.09
2017-06-23T02:34:16.972Z,-4.09
2017-06-23T02:35:05.696Z,-4.09
2017-06-23T02:35:53.721Z,-4.09
2017-06-23T02:36:48.766Z,-4.09
2017-06-23T02:37:42.831Z,-4.09
2017-06-23T02:38:31.838Z,-4.09
2017-06-23T02:39:31.936Z,-4.09
2017-06-23T02:40:20.935Z,-4.09
2017-06-23T02:41:09.011Z,-4.09
2017-06-23T02:41:58.048Z,-4.09
2017-06-23T02:42:47.125Z,-4.09
2017-06-23T02:43:41.517Z,-4.09
2017-06-23T02:44:42.171Z,-4.09
2017-06-23T02:45:37.225Z,-4.09
2017-06-23T02:46:32.265Z,-4.09
2017-06-23T02:47:20.264Z,-4.09
2017-06-23T02:48:15.339Z,-4.09
2017-06-23T02:49:03.753Z,-4.09
2017-06-23T02:49:52.528Z,-4.09
2017-06-23T02:50:46.465Z,-4.09
2017-06-23T02:51:35.511Z,-4.09
2017-06-23T02:52:29.584Z,-4.09
2017-06-23T02:53:17.604Z,-4.09
2017-06-23T02:54:11.684Z,-4.09
2017-06-23T02:55:05.893Z,-4.09
2017-06-23T02:55:59.825Z,-4.09
2017-06-23T02:56:47.946Z,-4.09
2017-06-23T02:57:37.055Z,-4.09
2017-06-23T02:58:26.063Z,-4.09
2017-06-23T02:59:27.169Z,-4.09
2017-06-23T03:00:27.367Z,-4.09
2017-06-23T03:01:21.115Z,-4.09
2017-06-23T03:02:15.052Z,-4.09
2017-06-23T03:03:10.055Z,-4.09
2017-06-23T03:03:59.139Z,-4.09
2017-06-23T03:04:59.145Z,-4.09
2017-06-23T03:05:54.292Z,-4.09
2017-06-23T03:06:48.233Z,-4.09
2017-06-23T03:07:43.323Z,-4.09
2017-06-23T03:08:32.573Z,-4.09
2017-06-23T03:09:26.361Z,-4.09
2017-06-23T03:10:26.445Z,-4.09
2017-06-23T03:11:15.438Z,-4.09
2017-06-23T03:12:09.525Z,-4.09
2017-06-23T03:13:03.552Z,-4.09
2017-06-23T03:13:57.631Z,-4.09
2017-06-23T03:14:51.647Z,-4.09
2017-06-23T03:15:40.743Z,-4.09
2017-06-23T03:16:35.831Z,-4.09
2017-06-23T03:17:23.763Z,-4.09
2017-06-23T03:18:12.819Z,-4.09
2017-06-23T03:19:07.853Z,-4.09
2017-06-23T03:20:08.019Z,-4.09
2017-06-23T03:21:02.040Z,-4.09
2017-06-23T03:21:56.209Z,-4.09
2017-06-23T03:22:45.055Z,-4.09
2017-06-23T03:23:39.437Z,-4.10
2017-06-23T03:24:33.373Z,-4.10
2017-06-23T03:25:27.157Z,-4.10
2017-06-23T03:26:15.169Z,-4.10
2017-06-23T03:27:03.257Z,-4.10
2017-06-23T03:27:58.278Z,-4.10
2017-06-23T03:28:53.729Z,-4.10
2017-06-23T03:29:47.393Z,-4.10
2017-06-23T03:30:41.446Z,-4.10
2017-06-23T03:31:35.476Z,-4.10
2017-06-23T03:32:29.528Z,-4.10
2017-06-23T03:33:24.582Z,-4.10
2017-06-23T03:34:25.633Z,-4.10
2017-06-23T03:35:19.659Z,-4.10
2017-06-23T03:36:08.722Z,-4.10
2017-06-23T03:36:57.729Z,-4.10
2017-06-23T03:37:45.851Z,-4.10
2017-06-23T03:38:33.840Z,-4.10
2017-06-23T03:39:28.127Z,-4.10
2017-06-23T03:40:16.930Z,-4.10
2017-06-23T03:41:10.968Z,-4.10
2017-06-23T03:42:05.034Z,-4.10
2017-06-23T03:42:54.108Z,-4.10
2017-06-23T03:43:49.149Z,-4.10
2017-06-23T03:44:49.172Z,-4.10
2017-06-23T03:45:43.140Z,-4.10
2017-06-23T03:46:43.179Z,-4.10
2017-06-23T03:47:37.261Z,-4.10
2017-06-23T03:48:31.641Z,-4.10
2017-06-23T03:49:20.338Z,-4.10
2017-06-23T03:50:14.658Z,-4.10
2017-06-23T03:51:09.682Z,-4.10
2017-06-23T03:52:09.485Z,-4.10
2017-06-23T03:53:09.523Z,-4.10
2017-06-23T03:54:10.797Z,-4.10
2017-06-23T03:54:58.662Z,-4.10
2017-06-23T03:55:53.665Z,-4.10
2017-06-23T03:56:47.665Z,-4.10
2017-06-23T03:57:42.975Z,-4.10
2017-06-23T03:58:37.773Z,-4.10
2017-06-23T03:59:32.026Z,-4.10
2017-06-23T04:00:31.844Z,-4.10
2017-06-23T04:01:26.875Z,-4.10
2017-06-23T04:02:20.925Z,-4.10
2017-06-23T04:03:09.977Z,-4.10
2017-06-23T04:03:59.054Z,-4.10
2017-06-23T04:04:48.086Z,-4.10
2017-06-23T04:05:37.122Z,-4.10
2017-06-23T04:06:26.463Z,-4.10
2017-06-23T04:07:14.179Z,-4.10
2017-06-23T04:08:02.240Z,-4.10
2017-06-23T04:08:56.263Z,-4.10
2017-06-23T04:09:50.417Z,-4.10
2017-06-23T04:10:45.384Z,-4.10
2017-06-23T04:11:45.414Z,-4.10
2017-06-23T04:12:40.436Z,-4.10
2017-06-23T04:13:34.572Z,-4.10
2017-06-23T04:14:28.550Z,-4.10
2017-06-23T04:15:28.771Z,-4.10
2017-06-23T04:16:22.844Z,-4.10
2017-06-23T04:17:11.841Z,-4.10
2017-06-23T04:17:59.955Z,-4.10
2017-06-23T04:18:53.747Z,-4.10
2017-06-23T04:19:48.824Z,-4.10
2017-06-23T04:20:42.863Z,-4.10
2017-06-23T04:21:31.016Z,-4.10
2017-06-23T04:22:30.961Z,-4.10
2017-06-23T04:23:25.008Z,-4.10
2017-06-23T04:24:13.025Z,-4.10
2017-06-23T04:25:02.082Z,-4.10
2017-06-23T04:26:03.396Z,-4.10
2017-06-23T04:26:52.160Z,-4.10
2017-06-23T04:27:40.203Z,-4.10
2017-06-23T04:28:29.244Z,-4.10
2017-06-23T04:29:29.290Z,-4.10
2017-06-23T04:30:23.316Z,-4.10
2017-06-23T04:31:12.427Z,-4.10
2017-06-23T04:32:07.537Z,-4.10
2017-06-23T04:33:07.499Z,-4.10
2017-06-23T04:33:55.818Z,-4.10
2017-06-23T04:34:55.658Z,-4.10
2017-06-23T04:35:49.620Z,-4.10
2017-06-23T04:36:37.853Z,-4.10
2017-06-23T04:37:31.923Z,-4.10
2017-06-23T04:38:20.741Z,-4.10
2017-06-23T04:39:15.930Z,-4.10
2017-06-23T04:40:10.060Z,-4.10
2017-06-23T04:41:09.931Z,-4.10
2017-06-23T04:42:05.144Z,-4.10
2017-06-23T04:42:58.946Z,-4.09
2017-06-23T04:43:53.007Z,-4.09
2017-06-23T04:44:47.237Z,-4.09
2017-06-23T04:45:36.259Z,-4.09
2017-06-23T04:46:25.295Z,-4.09
2017-06-23T04:47:20.205Z,-4.09
2017-06-23T04:48:15.239Z,-4.09
2017-06-23T04:49:09.262Z,-4.09
2017-06-23T04:50:03.329Z,-4.09
2017-06-23T04:50:58.691Z,-4.09
2017-06-23T04:51:58.762Z,-4.09
2017-06-23T04:52:52.768Z,-4.09
2017-06-23T04:53:46.870Z,-4.09
2017-06-23T04:54:46.910Z,-4.09
2017-06-23T04:55:40.914Z,-4.09
2017-06-23T04:56:35.945Z,-4.09
2017-06-23T04:57:31.049Z,-4.09
2017-06-23T04:58:26.134Z,-4.09
2017-06-23T04:59:26.114Z,-4.09
2017-06-23T05:00:21.172Z,-4.09
2017-06-23T05:01:21.200Z,-4.09
2017-06-23T05:02:16.242Z,-4.08
2017-06-23T05:03:16.272Z,-4.08
2017-06-23T05:04:05.343Z,-4.08
2017-06-23T05:04:59.388Z,-4.09
2017-06-23T05:05:54.395Z,-4.09
2017-06-23T05:06:43.428Z,-4.09
2017-06-23T05:07:38.515Z,-4.09
2017-06-23T05:08:32.529Z,-4.09
2017-06-23T05:09:26.633Z,-4.09
2017-06-23T05:10:21.641Z,-4.09
2017-06-23T05:11:10.713Z,-4.09
2017-06-23T05:12:04.739Z,-4.09
2017-06-23T05:12:59.806Z,-4.09
2017-06-23T05:13:53.794Z,-4.09
2017-06-23T05:14:48.059Z,-4.09
2017-06-23T05:15:47.964Z,-4.08
2017-06-23T05:16:41.938Z,-4.08
2017-06-23T05:17:36.055Z,-4.08
2017-06-23T05:18:31.034Z,-4.08
2017-06-23T05:19:25.102Z,-4.08
2017-06-23T05:20:25.170Z,-4.08
2017-06-23T05:21:20.230Z,-4.08
2017-06-23T05:22:09.238Z,-4.08
2017-06-23T05:23:03.326Z,-4.07
2017-06-23T05:24:04.377Z,-4.07
2017-06-23T05:24:58.406Z,-4.07
2017-06-23T05:25:58.477Z,-4.07
2017-06-23T05:26:52.468Z,-4.07
2017-06-23T05:27:46.559Z,-4.06
2017-06-23T05:28:46.647Z,-4.06
2017-06-23T05:29:35.672Z,-4.06
2017-06-23T05:30:29.665Z,-4.07
2017-06-23T05:31:23.978Z,-4.07
2017-06-23T05:32:11.775Z,-4.07
2017-06-23T05:33:12.844Z,-4.08
2017-06-23T05:34:12.864Z,-4.07
2017-06-23T05:35:06.930Z,-4.07
2017-06-23T05:36:01.975Z,-4.07
2017-06-23T05:36:50.069Z,-4.07
2017-06-23T05:37:39.079Z,-0.25
2017-06-23T05:38:33.164Z,-4.06
2017-06-23T05:39:33.184Z,1.96
2017-06-23T05:40:21.287Z,1.34
2017-06-23T05:41:21.276Z,-4.06
2017-06-23T05:42:15.351Z,10.01
2017-06-23T05:43:09.394Z,14.38
2017-06-23T05:44:04.460Z,13.04
2017-06-23T05:44:58.484Z,9.94
2017-06-23T05:45:53.545Z,9.52
2017-06-23T05:46:47.598Z,16.72
2017-06-23T05:47:47.650Z,11.18
2017-06-23T05:48:41.674Z,28.00
2017-06-23T05:49:35.796Z,24.59
2017-06-23T05:50:35.815Z,19.74
2017-06-23T05:51:29.659Z,35.92
2017-06-23T05:52:23.847Z,29.69
2017-06-23T05:53:17.813Z,30.19
2017-06-23T05:54:12.010Z,32.22
2017-06-23T05:55:06.097Z,22.79
2017-06-23T05:56:01.086Z,23.20
2017-06-23T05:56:56.144Z,15.56
2017-06-23T05:57:45.179Z,11.88
2017-06-23T05:58:39.312Z,11.58
2017-06-23T05:59:34.349Z,3.83
2017-06-23T06:00:28.384Z,18.73
2017-06-23T06:01:23.491Z,11.80
2017-06-23T06:02:17.440Z,15.25
2017-06-23T06:03:11.564Z,16.58
2017-06-23T06:04:06.682Z,14.20
2017-06-23T06:04:55.650Z,13.15
2017-06-23T06:05:50.726Z,17.40
2017-06-23T06:06:44.801Z,12.95
2017-06-23T06:07:44.785Z,12.05
2017-06-23T06:08:38.821Z,13.49
2017-06-23T06:09:32.898Z,20.17
2017-06-23T06:10:32.935Z,30.43
2017-06-23T06:11:28.025Z,28.77
2017-06-23T06:12:28.142Z,39.02
2017-06-23T06:13:22.089Z,39.85
2017-06-23T06:14:22.200Z,42.16
2017-06-23T06:15:17.205Z,43.27
2017-06-23T06:16:06.281Z,43.20
2017-06-23T06:17:01.326Z,46.63
2017-06-23T06:17:55.406Z,48.91
2017-06-23T06:18:55.416Z,47.19
2017-06-23T06:19:50.499Z,52.63
2017-06-23T06:20:50.782Z,51.98
2017-06-23T06:21:50.554Z,47.27
2017-06-23T06:22:45.655Z,49.55
2017-06-23T06:23:40.650Z,43.02
2017-06-23T06:24:34.727Z,41.84
2017-06-23T06:25:28.782Z,37.44
2017-06-23T06:26:22.846Z,40.43
2017-06-23T06:27:11.938Z,38.86
2017-06-23T06:28:06.947Z,35.85
2017-06-23T06:28:55.970Z,29.87
2017-06-23T06:29:56.067Z,28.40
2017-06-23T06:30:50.120Z,22.70
2017-06-23T06:31:44.206Z,22.18
2017-06-23T06:32:39.229Z,22.72
2017-06-23T06:33:34.286Z,22.92
2017-06-23T06:34:34.338Z,24.23
2017-06-23T06:35:34.393Z,30.36
2017-06-23T06:36:34.430Z,28.52
2017-06-23T06:37:28.732Z,24.63
2017-06-23T06:38:22.558Z,29.40
2017-06-23T06:39:16.570Z,34.69
2017-06-23T06:40:10.659Z,39.99
2017-06-23T06:41:04.680Z,40.38
2017-06-23T06:42:04.754Z,42.70
2017-06-23T06:42:59.809Z,39.28
2017-06-23T06:43:54.869Z,34.31
2017-06-23T06:44:54.875Z,36.36
2017-06-23T06:45:49.037Z,43.53
2017-06-23T06:46:42.994Z,44.54
2017-06-23T06:47:37.056Z,40.50
2017-06-23T06:48:31.129Z,41.93
2017-06-23T06:49:31.152Z,41.37
2017-06-23T06:50:26.219Z,37.31
2017-06-23T06:51:20.283Z,32.59
2017-06-23T06:52:15.359Z,30.83
2017-06-23T06:53:10.332Z,36.33
2017-06-23T06:54:04.453Z,38.57
2017-06-23T06:55:04.512Z,35.88
2017-06-23T06:55:53.551Z,38.41
2017-06-23T06:56:42.605Z,32.68
2017-06-23T06:57:37.553Z,44.83
2017-06-23T06:58:31.684Z,42.46
2017-06-23T06:59:26.814Z,42.75
2017-06-23T07:00:20.721Z,42.23
2017-06-23T07:01:09.816Z,43.32
2017-06-23T07:02:03.598Z,43.53
2017-06-23T07:02:51.824Z,50.31
2017-06-23T07:03:47.105Z,51.73
2017-06-23T07:04:40.910Z,52.62
2017-06-23T07:05:30.087Z,52.29
2017-06-23T07:06:25.185Z,49.95
2017-06-23T07:07:14.297Z,48.08
2017-06-23T07:08:08.342Z,49.44
2017-06-23T07:09:02.295Z,50.50
2017-06-23T07:09:51.518Z,53.06
2017-06-23T07:10:46.525Z,53.55
2017-06-23T07:11:40.556Z,54.07
2017-06-23T07:12:35.531Z,54.38
2017-06-23T07:13:29.698Z,53.80
2017-06-23T07:14:23.754Z,52.98
2017-06-23T07:15:23.866Z,54.26
2017-06-23T07:16:17.877Z,53.61
2017-06-23T07:17:07.006Z,53.44
2017-06-23T07:17:55.052Z,53.91
2017-06-23T07:18:55.070Z,53.73
2017-06-23T07:19:49.095Z,54.24
2017-06-23T07:20:44.489Z,53.83
2017-06-23T07:21:33.303Z,53.94
2017-06-23T07:22:22.321Z,52.60
2017-06-23T07:23:11.411Z,52.23
2017-06-23T07:24:05.469Z,53.80
2017-06-23T07:25:00.464Z,53.94
2017-06-23T07:25:50.142Z,54.08
2017-06-23T07:26:43.599Z,53.53
2017-06-23T07:27:32.701Z,52.68
2017-06-23T07:28:21.737Z,53.34
2017-06-23T07:29:16.524Z,54.00
2017-06-23T07:30:10.816Z,54.21
2017-06-23T07:31:11.198Z,54.18
2017-06-23T07:32:05.786Z,52.37
2017-06-23T07:32:54.020Z,54.11
2017-06-23T07:33:49.209Z,53.26
2017-06-23T07:34:44.087Z,54.69
2017-06-23T07:35:39.057Z,53.69
2017-06-23T07:36:33.346Z,54.08
2017-06-23T07:37:27.305Z,54.10
2017-06-23T07:38:27.137Z,54.67
2017-06-23T07:39:22.549Z,53.18
2017-06-23T07:40:16.490Z,53.11
2017-06-23T07:41:05.671Z,53.32
2017-06-23T07:41:53.841Z,53.74
2017-06-23T07:42:48.626Z,53.41
2017-06-23T07:43:43.830Z,52.76
2017-06-23T07:44:38.996Z,51.25
2017-06-23T07:45:34.072Z,52.02
2017-06-23T07:46:23.091Z,52.16
2017-06-23T07:47:11.112Z,50.48
2017-06-23T07:48:00.316Z,50.51
2017-06-23T07:49:00.294Z,51.16
2017-06-23T07:49:54.351Z,52.82
2017-06-23T07:50:42.551Z,53.17
2017-06-23T07:51:42.268Z,53.45
2017-06-23T07:52:36.657Z,53.64
2017-06-23T07:53:25.675Z,53.71
2017-06-23T07:54:20.747Z,53.54
2017-06-23T07:55:09.891Z,53.30
2017-06-23T07:55:58.903Z,52.93
2017-06-23T07:56:59.000Z,54.13
2017-06-23T07:57:53.113Z,53.13
2017-06-23T07:58:47.205Z,52.46
2017-06-23T07:59:42.191Z,50.90
2017-06-23T08:00:30.266Z,51.37
2017-06-23T08:01:24.360Z,52.70
2017-06-23T08:02:13.455Z,51.50
2017-06-23T08:03:08.571Z,51.88
2017-06-23T08:04:08.631Z,51.00
2017-06-23T08:05:03.652Z,50.53
2017-06-23T08:05:52.766Z,50.05
2017-06-23T08:06:47.820Z,51.31
2017-06-23T08:07:41.940Z,52.35
2017-06-23T08:08:37.024Z,52.92
2017-06-23T08:09:37.066Z,52.89
2017-06-23T08:10:31.194Z,53.15
2017-06-23T08:11:25.283Z,52.51
2017-06-23T08:12:19.321Z,53.69
2017-06-23T08:13:14.396Z,53.22
2017-06-23T08:14:03.520Z,53.34
2017-06-23T08:14:57.486Z,54.29
2017-06-23T08:15:51.553Z,54.35
2017-06-23T08:16:46.665Z,54.01
2017-06-23T08:17:35.715Z,53.95
2017-06-23T08:18:24.785Z,53.12
2017-06-23T08:19:19.115Z,52.65
2017-06-23T08:20:18.987Z,53.67
2017-06-23T08:21:08.015Z,53.68
2017-06-23T08:21:57.106Z,54.82
2017-06-23T08:22:51.170Z,53.83
2017-06-23T08:23:45.321Z,53.93
2017-06-23T08:24:40.685Z,53.75
2017-06-23T08:25:34.347Z,54.18
2017-06-23T08:26:28.482Z,53.49
2017-06-23T08:27:28.496Z,53.53
2017-06-23T08:28:23.549Z,54.37
2017-06-23T08:29:18.606Z,53.46
2017-06-23T08:30:12.781Z,54.39
2017-06-23T08:31:06.773Z,54.24
2017-06-23T08:32:00.801Z,53.51
2017-06-23T08:32:54.854Z,53.56
2017-06-23T08:33:48.952Z,54.46
2017-06-23T08:34:48.968Z,53.96
2017-06-23T08:35:50.077Z,53.38
2017-06-23T08:36:38.174Z,53.00
2017-06-23T08:37:27.237Z,53.19
2017-06-23T08:38:22.309Z,53.13
2017-06-23T08:39:22.363Z,52.52
2017-06-23T08:40:10.478Z,52.70
2017-06-23T08:41:05.616Z,51.05
2017-06-23T08:42:00.606Z,53.05
2017-06-23T08:42:55.669Z,54.13
2017-06-23T08:43:44.715Z,53.71
2017-06-23T08:44:32.816Z,54.11
2017-06-23T08:45:21.846Z,53.85
2017-06-23T08:46:17.104Z,52.39
2017-06-23T08:47:10.982Z,53.74
2017-06-23T08:48:11.017Z,54.35
2017-06-23T08:49:06.087Z,52.38
2017-06-23T08:50:01.148Z,52.04
2017-06-23T08:50:55.191Z,54.61
2017-06-23T08:51:50.257Z,54.28
2017-06-23T08:52:44.339Z,54.15
2017-06-23T08:53:44.400Z,52.95
2017-06-23T08:54:38.468Z,54.57
2017-06-23T08:55:32.526Z,54.10
2017-06-23T08:56:26.593Z,54.53
2017-06-23T08:57:21.985Z,53.49
2017-06-23T08:58:22.701Z,53.03
2017-06-23T08:59:11.744Z,53.73
2017-06-23T09:00:06.817Z,50.11
2017-06-23T09:01:06.876Z,53.85
2017-06-23T09:02:00.945Z,52.08
2017-06-23T09:02:55.204Z,51.41
2017-06-23T09:03:49.093Z,53.43
2017-06-23T09:04:43.042Z,52.12
2017-06-23T09:05:37.085Z,52.32
2017-06-23T09:06:25.204Z,54.94
2017-06-23T09:07:14.264Z,53.65
2017-06-23T09:08:14.360Z,54.02
2017-06-23T09:09:09.410Z,53.75
2017-06-23T09:10:03.489Z,53.29
2017-06-23T09:10:52.555Z,53.23
2017-06-23T09:11:47.611Z,53.19
2017-06-23T09:12:41.702Z,53.16
2017-06-23T09:13:29.761Z,53.62
2017-06-23T09:14:29.816Z,54.37
2017-06-23T09:15:23.880Z,54.18
2017-06-23T09:16:23.938Z,53.67
2017-06-23T09:17:17.929Z,54.41
2017-06-23T09:18:13.116Z,53.08
2017-06-23T09:19:08.163Z,52.72
2017-06-23T09:20:08.150Z,50.75
2017-06-23T09:21:02.186Z,52.52
2017-06-23T09:21:56.243Z,53.34
2017-06-23T09:22:51.332Z,53.06
2017-06-23T09:23:46.338Z,54.29
2017-06-23T09:24:40.759Z,53.77
2017-06-23T09:25:34.478Z,53.23
2017-06-23T09:26:28.607Z,54.16
2017-06-23T09:27:23.670Z,52.73
2017-06-23T09:28:17.693Z,51.06
2017-06-23T09:29:17.824Z,51.52
2017-06-23T09:30:12.903Z,51.72
2017-06-23T09:31:07.975Z,50.79
2017-06-23T09:32:03.059Z,49.67
2017-06-23T09:32:51.162Z,51.55
2017-06-23T09:33:45.195Z,50.37
2017-06-23T09:34:40.293Z,50.86
2017-06-23T09:35:35.690Z,51.32
2017-06-23T09:36:24.458Z,52.68
2017-06-23T09:37:24.532Z,52.41
2017-06-23T09:38:18.603Z,52.54
2017-06-23T09:39:18.697Z,52.15
2017-06-23T09:40:13.757Z,53.33
2017-06-23T09:41:14.091Z,54.28
2017-06-23T09:42:08.846Z,53.70
2017-06-23T09:42:56.893Z,53.47
2017-06-23T09:43:51.026Z,54.17
2017-06-23T09:44:45.060Z,53.72
2017-06-23T09:45:39.088Z,53.55
2017-06-23T09:46:34.150Z,53.89
2017-06-23T09:47:28.180Z,53.34
2017-06-23T09:48:28.284Z,54.56
2017-06-23T09:49:23.345Z,54.42
2017-06-23T09:50:11.372Z,53.73
2017-06-23T09:51:06.473Z,55.17
2017-06-23T09:52:02.615Z,53.38
2017-06-23T09:52:55.571Z,53.33
2017-06-23T09:53:44.690Z,53.65
2017-06-23T09:54:39.756Z,53.14
2017-06-23T09:55:39.776Z,53.26
2017-06-23T09:56:39.883Z,52.39
2017-06-23T09:57:35.203Z,53.36
2017-06-23T09:58:23.979Z,53.63
2017-06-23T09:59:18.043Z,53.75
2017-06-23T10:00:12.083Z,54.06
2017-06-23T10:01:01.190Z,54.11
2017-06-23T10:01:49.268Z,53.29
2017-06-23T10:02:44.575Z,54.57
2017-06-23T10:03:38.396Z,53.20
2017-06-23T10:04:27.491Z,53.67
2017-06-23T10:05:21.529Z,52.80
2017-06-23T10:06:15.599Z,53.35
2017-06-23T10:07:09.648Z,54.09
2017-06-23T10:07:59.061Z,53.58
2017-06-23T10:08:46.765Z,53.22
2017-06-23T10:09:35.833Z,54.67
2017-06-23T10:10:30.844Z,53.90
2017-06-23T10:11:24.982Z,53.49
2017-06-23T10:12:13.992Z,53.85
2017-06-23T10:13:03.466Z,53.81
2017-06-23T10:13:57.147Z,53.26
2017-06-23T10:14:51.206Z,54.41
2017-06-23T10:15:39.289Z,54.86
2017-06-23T10:16:33.286Z,52.85
2017-06-23T10:17:22.398Z,53.29
2017-06-23T10:18:22.732Z,53.32
2017-06-23T10:19:16.555Z,52.96
2017-06-23T10:20:10.608Z,53.55
2017-06-23T10:20:59.687Z,53.64
2017-06-23T10:21:54.775Z,53.16
2017-06-23T10:22:49.810Z,52.75
2017-06-23T10:23:44.144Z,53.53
2017-06-23T10:24:43.997Z,52.91
2017-06-23T10:25:39.051Z,53.56
2017-06-23T10:26:33.110Z,52.84
2017-06-23T10:27:27.163Z,53.15
2017-06-23T10:28:21.312Z,53.37
2017-06-23T10:29:16.396Z,53.17
2017-06-23T10:30:11.440Z,51.96
2017-06-23T10:31:06.506Z,53.05
2017-06-23T10:31:55.653Z,53.10
2017-06-23T10:32:44.604Z,53.01
2017-06-23T10:33:44.746Z,53.35
2017-06-23T10:34:38.820Z,53.16
2017-06-23T10:35:38.864Z,53.50
2017-06-23T10:36:32.915Z,53.69
2017-06-23T10:37:32.975Z,53.23
2017-06-23T10:38:33.063Z,52.82
2017-06-23T10:39:22.114Z,53.81
2017-06-23T10:40:16.592Z,53.33
2017-06-23T10:41:10.300Z,53.53
2017-06-23T10:41:59.355Z,53.29
2017-06-23T10:42:47.432Z,53.05
2017-06-23T10:43:35.519Z,52.89
2017-06-23T10:44:24.564Z,54.19
2017-06-23T10:45:19.952Z,54.51
2017-06-23T10:46:14.722Z,53.03
2017-06-23T10:47:08.819Z,52.47
2017-06-23T10:47:57.869Z,52.94
2017-06-23T10:48:46.987Z,52.25
2017-06-23T10:49:36.063Z,49.44
2017-06-23T10:50:31.516Z,49.58
2017-06-23T10:51:25.236Z,51.90
2017-06-23T10:52:25.374Z,52.01
2017-06-23T10:53:26.405Z,50.86
2017-06-23T10:54:20.507Z,52.07
2017-06-23T10:55:09.595Z,51.10
2017-06-23T10:56:01.745Z,52.18
2017-06-23T10:56:52.694Z,53.08
2017-06-23T10:57:40.796Z,50.66
2017-06-23T10:58:34.816Z,51.51
2017-06-23T10:59:28.908Z,50.09
2017-06-23T11:00:23.022Z,50.10
2017-06-23T11:01:17.403Z,49.09
2017-06-23T11:02:17.170Z,49.27
2017-06-23T11:03:06.249Z,48.03
2017-06-23T11:04:00.325Z,50.31
2017-06-23T11:04:54.420Z,48.92
2017-06-23T11:05:48.478Z,49.67
2017-06-23T11:06:37.617Z,49.86
2017-06-23T11:07:25.684Z,48.76
2017-06-23T11:08:20.752Z,50.54
2017-06-23T11:09:09.788Z,50.53
2017-06-23T11:09:58.907Z,50.22
2017-06-23T11:10:52.981Z,50.78
2017-06-23T11:11:48.105Z,49.47
2017-06-23T11:12:48.132Z,50.07
2017-06-23T11:13:37.210Z,50.94
2017-06-23T11:14:31.299Z,52.27
2017-06-23T11:15:31.391Z,51.24
2017-06-23T11:16:26.381Z,52.57
2017-06-23T11:17:15.480Z,51.08
2017-06-23T11:18:09.553Z,52.07
2017-06-23T11:19:03.624Z,51.35
2017-06-23T11:19:57.678Z,52.97
2017-06-23T11:20:51.723Z,53.32
2017-06-23T11:21:40.781Z,53.31
2017-06-23T11:22:34.861Z,53.30
2017-06-23T11:23:34.892Z,53.73
2017-06-23T11:24:30.005Z,53.89
2017-06-23T11:25:25.004Z,53.97
2017-06-23T11:26:14.089Z,54.18
2017-06-23T11:27:09.165Z,52.44
2017-06-23T11:27:58.318Z,51.94
2017-06-23T11:28:47.267Z,52.79
2017-06-23T11:29:41.404Z,53.28
2017-06-23T11:30:30.424Z,50.16
2017-06-23T11:31:24.533Z,50.70